CAT ESP
Pilots school
Telephone 972234126 972 23 41 26
 

Aeronautical weather

 

This section shows the meteorological information that is used in the practice of students in the pilot school at our center during training, so it may not be current and should be used at your own risk. AERBRAVA is not responsible for its use.

 

ACTUAL WEATHER

Loading...

sat24.com

Servei Meteorològic de Catalunya

 

LEGE 211730Z 19011KT 160V220 9999 FEW030 BKN070 14/06 Q1014
LEGE 211700Z 19012KT 9999 FEW040 BKN075 14/05 Q1014
LEGE 211630Z 20012KT 170V230 9999 FEW040 BKN070 15/05 Q1014
LEGE 211600Z 20012KT 170V240 9999 FEW040 BKN070 16/05 Q1014
LEGE 211530Z 19012KT 160V220 9999 SCT040 17/05 Q1014
LEGE 211500Z 19012KT 170V230 9999 FEW040 17/04 Q1014
LEGE 211430Z 20013KT 160V230 9999 FEW040 17/05 Q1014
LEGE 211400Z 20013KT 160V230 9999 FEW040 18/05 Q1014
LEGE 211330Z 19012KT 160V220 9999 FEW040 18/04 Q1014
LEGE 211300Z 18010KT 150V210 9999 FEW040 19/04 Q1014
LEGE 211230Z 15004KT 9999 FEW040 19/03 Q1014
LEGE 211200Z 18006KT 140V310 9999 FEW038 18/04 Q1014

TAF LEGE 211700Z 2118/2218 19010KT 9999 FEW040 TX19/2213Z TN06/2206Z
BECMG 2118/2120 VRB03KT
TEMPO 2200/2207 01010KT 4000 SHRA FEW040TCU
PROB30
TEMPO 2212/2215 05009KT
BECMG 2215/2218 VRB04KT

Aviation Weather

 
Aerbrava facebook Aerbrava twitter Aerbrava instagram
We do not use cookies, we do not collect or transfer users personal data. You can find additional information about our Cookies Policy HERE.

¡html Vàlid! ¡CSS Vàlid!